createdAt,value
2024-05-09T06:56:46.790Z,14.43
2024-05-09T06:57:47.877Z,14.54
2024-05-09T06:58:48.012Z,14.57
2024-05-09T06:59:48.035Z,14.61
2024-05-09T07:00:48.190Z,14.65
2024-05-09T07:01:48.248Z,14.58
2024-05-09T07:02:48.459Z,14.57
2024-05-09T07:03:48.416Z,14.58
2024-05-09T07:04:48.572Z,14.64
2024-05-09T07:05:49.624Z,14.64
2024-05-09T07:06:48.604Z,14.77
2024-05-09T07:07:49.102Z,14.84
2024-05-09T07:08:50.234Z,14.92
2024-05-09T07:09:48.914Z,14.96
2024-05-09T07:10:49.095Z,14.96
2024-05-09T07:11:49.225Z,14.98
2024-05-09T07:12:49.195Z,15.06
2024-05-09T07:13:49.263Z,15.17
2024-05-09T07:14:49.404Z,15.21
2024-05-09T07:15:49.404Z,15.19
2024-05-09T07:16:49.585Z,15.10
2024-05-09T07:17:49.720Z,15.01
2024-05-09T07:18:50.093Z,14.91
2024-05-09T07:19:49.991Z,14.86
2024-05-09T07:20:50.684Z,14.81
2024-05-09T07:21:49.920Z,14.81
2024-05-09T07:22:50.020Z,14.81
2024-05-09T07:23:50.145Z,14.77
2024-05-09T07:24:50.170Z,14.80
2024-05-09T07:25:50.267Z,14.86
2024-05-09T07:26:51.193Z,14.96
2024-05-09T07:27:50.356Z,15.07
2024-05-09T07:28:50.475Z,15.14
2024-05-09T07:29:50.548Z,15.19
2024-05-09T07:30:50.656Z,15.23
2024-05-09T07:31:50.770Z,15.32
2024-05-09T07:32:51.056Z,15.41
2024-05-09T07:33:51.073Z,15.54
2024-05-09T07:34:51.031Z,15.69
2024-05-09T07:35:51.098Z,15.75
2024-05-09T07:36:51.156Z,15.80
2024-05-09T07:37:51.296Z,15.82
2024-05-09T07:38:51.351Z,15.86
2024-05-09T07:39:51.380Z,15.86
2024-05-09T07:40:51.492Z,15.90
2024-05-09T07:41:51.534Z,15.96
2024-05-09T07:42:51.603Z,16.11
2024-05-09T07:43:51.773Z,16.24
2024-05-09T07:44:51.753Z,16.08
2024-05-09T07:45:54.496Z,15.87
2024-05-09T07:49:16.441Z,15.57
2024-05-09T07:53:07.565Z,15.60
2024-05-09T07:53:44.735Z,15.60
2024-05-09T07:53:55.958Z,15.86
2024-05-09T07:54:51.322Z,15.96
2024-05-09T07:55:51.358Z,15.93
2024-05-09T07:56:51.539Z,15.89
2024-05-09T07:57:51.790Z,15.86
2024-05-09T07:58:51.917Z,15.72
2024-05-09T07:59:51.530Z,15.68
2024-05-09T08:00:51.698Z,15.71
2024-05-09T08:01:51.832Z,15.84
2024-05-09T08:02:51.809Z,15.84
2024-05-09T08:03:52.006Z,15.92
2024-05-09T08:04:52.019Z,16.09
2024-05-09T08:05:52.242Z,16.27
2024-05-09T08:06:52.128Z,16.49
2024-05-09T08:07:52.180Z,16.64
2024-05-09T08:08:52.256Z,16.58
2024-05-09T08:09:52.446Z,16.60
2024-05-09T08:10:52.553Z,16.64
2024-05-09T08:11:52.676Z,16.67
2024-05-09T08:12:52.667Z,16.67
2024-05-09T08:13:52.671Z,16.78
2024-05-09T08:14:52.766Z,16.79
2024-05-09T08:15:52.989Z,16.75
2024-05-09T08:16:52.944Z,16.85
2024-05-09T08:17:53.014Z,16.93
2024-05-09T08:18:53.143Z,17.00
2024-05-09T08:19:53.206Z,16.94
2024-05-09T08:20:53.240Z,17.03
2024-05-09T08:21:53.351Z,17.19
2024-05-09T08:22:53.394Z,17.31
2024-05-09T08:23:53.448Z,17.48
2024-05-09T08:24:53.571Z,17.70
2024-05-09T08:25:53.647Z,18.08
2024-05-09T08:26:53.731Z,18.33
2024-05-09T08:27:53.838Z,18.69
2024-05-09T08:28:53.922Z,19.00
2024-05-09T08:29:54.041Z,18.72
2024-05-09T08:30:54.237Z,18.36
2024-05-09T08:31:54.191Z,17.89
2024-05-09T08:32:54.235Z,17.75
2024-05-09T08:33:54.474Z,17.66
2024-05-09T08:34:54.448Z,17.89
2024-05-09T08:35:54.430Z,18.07
2024-05-09T08:36:55.173Z,18.20
2024-05-09T08:37:54.650Z,18.29
2024-05-09T08:38:54.739Z,18.37
2024-05-09T08:39:54.868Z,18.50
2024-05-09T08:40:54.821Z,18.58
2024-05-09T08:41:54.920Z,18.65
2024-05-09T08:42:55.025Z,18.67
2024-05-09T08:43:55.601Z,18.62
2024-05-09T08:44:55.105Z,18.72
2024-05-09T08:45:55.234Z,18.84
2024-05-09T08:46:55.386Z,18.88
2024-05-09T08:47:55.450Z,18.94
2024-05-09T08:48:55.646Z,18.99
2024-05-09T08:49:55.569Z,19.00
2024-05-09T08:50:55.646Z,18.69
2024-05-09T08:51:55.667Z,18.54
2024-05-09T08:52:55.716Z,18.39
2024-05-09T08:53:55.797Z,18.52
2024-05-09T08:54:55.912Z,18.58
2024-05-09T08:55:55.945Z,18.75
2024-05-09T08:56:56.025Z,18.76
2024-05-09T08:57:56.140Z,18.67
2024-05-09T08:58:56.161Z,18.72
2024-05-09T08:59:56.229Z,18.76
2024-05-09T09:00:56.334Z,18.75
2024-05-09T09:01:56.507Z,18.90
2024-05-09T09:02:56.533Z,19.08
2024-05-09T09:03:57.232Z,19.14
2024-05-09T09:04:56.709Z,19.29
2024-05-09T09:05:56.687Z,19.44
2024-05-09T09:06:58.296Z,19.58
2024-05-09T09:07:56.823Z,19.77
2024-05-09T09:08:56.881Z,19.92
2024-05-09T09:09:57.135Z,20.03
2024-05-09T09:10:57.117Z,20.16
2024-05-09T09:11:57.191Z,20.13
2024-05-09T09:12:57.262Z,20.20
2024-05-09T09:13:57.300Z,20.33
2024-05-09T09:14:57.381Z,20.59
2024-05-09T09:15:57.896Z,20.72
2024-05-09T09:16:57.581Z,20.72
2024-05-09T09:17:57.872Z,20.70
2024-05-09T09:18:58.896Z,20.66
2024-05-09T09:19:57.825Z,20.84
2024-05-09T09:20:57.889Z,20.91
2024-05-09T09:21:58.040Z,21.17
2024-05-09T09:22:58.043Z,21.53
2024-05-09T09:23:58.732Z,21.98
2024-05-09T09:24:58.243Z,22.51
2024-05-09T09:25:58.334Z,22.86
2024-05-09T09:26:58.412Z,23.10
2024-05-09T09:27:58.732Z,23.07
2024-05-09T09:28:58.601Z,22.76
2024-05-09T09:29:58.681Z,23.05
2024-05-09T09:30:58.772Z,23.65
2024-05-09T09:31:58.852Z,24.12
2024-05-09T09:32:59.083Z,24.24
2024-05-09T09:33:59.128Z,23.84
2024-05-09T09:34:59.172Z,23.61
2024-05-09T09:35:59.133Z,23.55
2024-05-09T09:36:59.286Z,23.90
2024-05-09T09:37:59.320Z,24.30
2024-05-09T09:38:59.399Z,24.64
2024-05-09T09:39:59.572Z,24.78
2024-05-09T09:40:59.644Z,25.45
2024-05-09T09:41:59.700Z,25.83
2024-05-09T09:42:59.741Z,25.83
2024-05-09T09:43:59.834Z,25.98
2024-05-09T09:45:04.888Z,25.88
2024-05-09T09:46:00.364Z,25.42
2024-05-09T09:47:00.098Z,24.43
2024-05-09T09:48:00.248Z,24.60
2024-05-09T09:49:00.331Z,24.99
2024-05-09T09:50:00.322Z,25.64
2024-05-09T09:51:00.397Z,26.17
2024-05-09T09:52:00.498Z,26.67
2024-05-09T09:53:00.547Z,27.12
2024-05-09T09:54:00.665Z,27.25
2024-05-09T09:55:00.858Z,26.72
2024-05-09T09:56:00.869Z,26.69
2024-05-09T09:57:00.910Z,26.89
2024-05-09T09:58:01.115Z,26.88
2024-05-09T09:59:01.092Z,25.62
2024-05-09T10:00:01.166Z,25.57
2024-05-09T10:01:01.357Z,26.15
2024-05-09T10:02:01.489Z,26.88
2024-05-09T10:03:01.972Z,27.46
2024-05-09T10:04:01.686Z,27.67
2024-05-09T10:05:01.827Z,27.78
2024-05-09T10:06:01.720Z,27.34
2024-05-09T10:07:01.871Z,26.23
2024-05-09T10:08:01.851Z,25.52
2024-05-09T10:09:01.943Z,24.61
2024-05-09T10:10:02.113Z,24.46
2024-05-09T10:11:02.289Z,24.31
2024-05-09T10:12:02.296Z,24.69
2024-05-09T10:13:02.436Z,25.02
2024-05-09T10:14:02.384Z,25.32
2024-05-09T10:15:02.467Z,25.92
2024-05-09T10:16:02.573Z,26.63
2024-05-09T10:17:02.687Z,27.18
2024-05-09T10:18:03.019Z,27.65
2024-05-09T10:19:02.994Z,27.79
2024-05-09T10:20:04.032Z,28.14
2024-05-09T10:21:02.962Z,28.49
2024-05-09T10:22:03.158Z,28.70
2024-05-09T10:23:03.139Z,28.62
2024-05-09T10:24:03.289Z,27.55
2024-05-09T10:25:05.171Z,27.14
2024-05-09T10:26:03.766Z,26.39
2024-05-09T10:27:03.490Z,25.57
2024-05-09T10:28:03.603Z,25.43
2024-05-09T10:29:03.721Z,25.05
2024-05-09T10:30:06.918Z,24.87
2024-05-09T10:31:03.845Z,24.81
2024-05-09T10:32:03.900Z,25.17
2024-05-09T10:33:04.065Z,25.61
2024-05-09T10:34:04.384Z,26.30
2024-05-09T10:35:04.240Z,26.67
2024-05-09T10:36:04.229Z,27.18
2024-05-09T10:37:05.067Z,26.88
2024-05-09T10:38:04.439Z,26.36
2024-05-09T10:39:04.495Z,25.50
2024-05-09T10:40:09.292Z,24.64
2024-05-09T10:41:04.646Z,24.52
2024-05-09T10:42:04.721Z,24.65
2024-05-09T10:43:06.460Z,25.33
2024-05-09T10:44:04.910Z,26.33
2024-05-09T10:45:05.033Z,26.99
2024-05-09T10:46:05.265Z,26.62
2024-05-09T10:47:05.187Z,25.18
2024-05-09T10:48:05.351Z,24.32
2024-05-09T10:49:07.818Z,24.20
2024-05-09T10:50:07.993Z,24.25
2024-05-09T10:51:05.492Z,25.28
2024-05-09T10:52:05.601Z,26.07
2024-05-09T10:53:05.657Z,26.89
2024-05-09T10:54:05.752Z,27.34
2024-05-09T10:55:06.090Z,27.57
2024-05-09T10:56:06.019Z,28.07
2024-05-09T10:57:06.002Z,28.58
2024-05-09T10:58:06.089Z,29.04
2024-05-09T10:59:06.179Z,29.23
2024-05-09T11:00:10.088Z,29.11
2024-05-09T11:01:07.356Z,29.31
2024-05-09T11:02:06.553Z,29.71
2024-05-09T11:03:08.454Z,29.80
2024-05-09T11:04:06.779Z,29.64
2024-05-09T11:05:06.842Z,29.83
2024-05-09T11:06:07.219Z,29.63
2024-05-09T11:07:06.934Z,28.76
2024-05-09T11:08:06.952Z,27.85
2024-05-09T11:09:07.060Z,26.77
2024-05-09T11:10:09.854Z,26.13
2024-05-09T11:11:08.485Z,25.75
2024-05-09T11:12:07.441Z,25.85
2024-05-09T11:13:07.457Z,26.94
2024-05-09T11:14:07.450Z,28.02
2024-05-09T11:15:07.488Z,28.61
2024-05-09T11:16:07.760Z,28.34
2024-05-09T11:17:07.730Z,28.29
2024-05-09T11:18:07.953Z,28.71
2024-05-09T11:19:07.937Z,29.08
2024-05-09T11:20:13.718Z,29.45
2024-05-09T11:21:08.016Z,29.85
2024-05-09T11:22:08.170Z,29.94
2024-05-09T11:23:08.163Z,29.63
2024-05-09T11:24:11.175Z,28.43
2024-05-09T11:25:08.403Z,27.65
2024-05-09T11:26:08.440Z,27.28
2024-05-09T11:27:08.526Z,27.51
2024-05-09T11:28:08.588Z,27.18
2024-05-09T11:29:08.660Z,26.92
2024-05-09T11:30:14.344Z,27.67
2024-05-09T11:31:09.668Z,28.33
2024-05-09T11:32:09.047Z,28.14
2024-05-09T11:33:09.084Z,26.65
2024-05-09T11:34:09.106Z,25.36
2024-05-09T11:35:09.172Z,24.64
2024-05-09T11:36:09.276Z,24.10
2024-05-09T11:37:09.405Z,23.60
2024-05-09T11:38:09.424Z,22.92
2024-05-09T11:39:09.511Z,22.79
2024-05-09T11:40:13.867Z,22.77
2024-05-09T11:41:09.668Z,23.70
2024-05-09T11:42:09.771Z,25.15
2024-05-09T11:43:09.829Z,26.32
2024-05-09T11:44:09.915Z,27.09
2024-05-09T11:45:09.996Z,27.49
2024-05-09T11:46:10.153Z,25.72
2024-05-09T11:47:10.236Z,24.87
2024-05-09T11:48:10.377Z,24.25
2024-05-09T11:49:10.607Z,23.33
2024-05-09T11:50:16.314Z,21.49
2024-05-09T11:51:10.543Z,21.12
2024-05-09T11:52:10.693Z,21.16
2024-05-09T11:53:10.692Z,21.24
2024-05-09T11:54:10.758Z,21.16
2024-05-09T11:55:11.522Z,21.13
2024-05-09T11:56:10.939Z,21.22
2024-05-09T11:57:10.982Z,21.19
2024-05-09T11:58:11.190Z,20.72
2024-05-09T11:59:11.154Z,20.87
2024-05-09T12:00:15.024Z,22.33
2024-05-09T12:01:11.415Z,23.75
2024-05-09T12:02:11.824Z,24.95
2024-05-09T12:03:11.553Z,25.39
2024-05-09T12:04:12.256Z,24.50
2024-05-09T12:05:11.750Z,24.93
2024-05-09T12:06:11.735Z,25.51
2024-05-09T12:07:12.996Z,25.72
2024-05-09T12:08:11.929Z,26.43
2024-05-09T12:09:12.020Z,27.10
2024-05-09T12:10:16.801Z,27.65
2024-05-09T12:11:12.326Z,27.57
2024-05-09T12:12:12.230Z,28.04
2024-05-09T12:13:12.376Z,27.63
2024-05-09T12:14:12.410Z,26.84
2024-05-09T12:15:12.493Z,26.92
2024-05-09T12:16:12.728Z,27.46
2024-05-09T12:17:12.733Z,28.02
2024-05-09T12:18:12.763Z,28.36
2024-05-09T12:19:12.929Z,28.49
2024-05-09T12:20:21.108Z,28.19
2024-05-09T12:21:13.071Z,28.73
2024-05-09T12:22:13.238Z,29.36
2024-05-09T12:23:13.234Z,30.04
2024-05-09T12:24:16.877Z,30.54
2024-05-09T12:25:13.495Z,30.75
2024-05-09T12:26:13.513Z,30.10
2024-05-09T12:27:13.586Z,28.93
2024-05-09T12:28:13.680Z,27.12
2024-05-09T12:29:13.729Z,27.21
2024-05-09T12:30:20.797Z,27.51
2024-05-09T12:31:13.982Z,27.84
2024-05-09T12:32:13.995Z,28.39
2024-05-09T12:33:14.452Z,28.14
2024-05-09T12:34:14.382Z,28.14
2024-05-09T12:35:14.245Z,28.49
2024-05-09T12:36:14.351Z,28.46
2024-05-09T12:37:15.299Z,28.89
2024-05-09T12:38:14.779Z,28.18
2024-05-09T12:39:14.656Z,27.29
2024-05-09T12:40:22.923Z,26.17
2024-05-09T12:41:14.811Z,25.30
2024-05-09T12:42:26.343Z,24.87
2024-05-09T12:43:14.993Z,24.40
2024-05-09T12:44:15.016Z,24.13
2024-05-09T12:45:15.127Z,23.98
2024-05-09T12:46:15.245Z,23.80
2024-05-09T12:47:15.318Z,23.23
2024-05-09T12:48:15.454Z,22.82
2024-05-09T12:49:17.328Z,22.65
2024-05-09T12:50:22.425Z,22.25
2024-05-09T12:51:15.609Z,22.25
2024-05-09T12:52:15.777Z,22.22
2024-05-09T12:53:15.776Z,22.03
2024-05-09T12:54:15.832Z,21.90
2024-05-09T12:55:16.031Z,21.80
2024-05-09T12:56:15.981Z,21.54
2024-05-09T12:57:16.045Z,21.44
2024-05-09T12:58:16.470Z,21.47
2024-05-09T12:59:16.220Z,21.47
2024-05-09T13:00:23.768Z,21.59
2024-05-09T13:01:16.471Z,21.50
2024-05-09T13:02:16.862Z,21.47
2024-05-09T13:03:16.744Z,21.43
2024-05-09T13:04:16.837Z,21.49
2024-05-09T13:05:16.922Z,21.61
2024-05-09T13:06:16.764Z,21.83
2024-05-09T13:07:16.962Z,22.14
2024-05-09T13:08:17.523Z,22.60
2024-05-09T13:09:17.063Z,23.22
2024-05-09T13:10:25.525Z,24.69
2024-05-09T13:11:17.253Z,25.99
2024-05-09T13:12:17.245Z,26.02
2024-05-09T13:13:17.539Z,26.99
2024-05-09T13:14:17.828Z,28.06
2024-05-09T13:15:17.547Z,28.80
2024-05-09T13:16:17.798Z,29.12
2024-05-09T13:17:17.695Z,29.41
2024-05-09T13:18:17.877Z,29.90
2024-05-09T13:19:17.901Z,29.15
2024-05-09T13:20:26.111Z,28.41
2024-05-09T13:21:18.101Z,27.36
2024-05-09T13:22:18.123Z,27.79
2024-05-09T13:23:18.168Z,28.19
2024-05-09T13:24:18.270Z,29.05
2024-05-09T13:25:18.401Z,29.34
2024-05-09T13:26:18.482Z,27.78
2024-05-09T13:27:18.552Z,27.57
2024-05-09T13:28:18.808Z,27.81
2024-05-09T13:29:18.734Z,28.43
2024-05-09T13:30:28.661Z,29.23
2024-05-09T13:31:18.889Z,29.61
2024-05-09T13:32:18.988Z,29.49
2024-05-09T13:33:19.173Z,29.26
2024-05-09T13:34:19.206Z,28.02
2024-05-09T13:35:19.238Z,26.13
2024-05-09T13:36:19.289Z,24.57
2024-05-09T13:37:19.392Z,23.83
2024-05-09T13:38:19.823Z,23.38
2024-05-09T13:39:19.524Z,23.15
2024-05-09T13:40:27.268Z,22.82
2024-05-09T13:41:19.703Z,22.77
2024-05-09T13:42:19.773Z,22.82
2024-05-09T13:43:19.920Z,22.88
2024-05-09T13:44:19.941Z,22.94
2024-05-09T13:45:20.020Z,22.91
2024-05-09T13:46:20.370Z,22.92
2024-05-09T13:47:20.317Z,22.88
2024-05-09T13:48:20.417Z,22.79
2024-05-09T13:49:20.456Z,22.54
2024-05-09T13:50:28.231Z,22.42
2024-05-09T13:51:20.499Z,22.28
2024-05-09T13:52:20.651Z,22.21
2024-05-09T13:53:20.653Z,22.21
2024-05-09T13:54:22.528Z,22.20
2024-05-09T13:55:20.854Z,22.21
2024-05-09T13:56:20.882Z,22.30
2024-05-09T13:57:21.006Z,22.27
2024-05-09T13:58:21.225Z,22.62
2024-05-09T13:59:21.117Z,22.64
2024-05-09T14:01:21.413Z,22.07
2024-05-09T14:02:22.166Z,22.03
2024-05-09T14:03:21.702Z,22.09
2024-05-09T14:04:21.573Z,22.14
2024-05-09T14:05:21.713Z,22.24
2024-05-09T14:06:21.664Z,22.06
2024-05-09T14:07:21.774Z,22.03
2024-05-09T14:08:22.576Z,22.07
2024-05-09T14:09:21.905Z,22.20
2024-05-09T14:10:28.493Z,23.13
2024-05-09T14:11:22.149Z,24.98
2024-05-09T14:12:22.148Z,26.28
2024-05-09T14:13:22.458Z,27.28
2024-05-09T14:14:22.375Z,27.07
2024-05-09T14:15:22.386Z,26.21
2024-05-09T14:16:22.523Z,25.43
2024-05-09T14:17:22.621Z,24.77
2024-05-09T14:18:22.611Z,24.20
2024-05-09T14:19:22.706Z,23.83
2024-05-09T14:20:30.755Z,23.65
2024-05-09T14:21:22.852Z,23.51
2024-05-09T14:22:22.961Z,23.33
2024-05-09T14:23:23.026Z,23.09
2024-05-09T14:24:23.077Z,22.91
2024-05-09T14:25:23.253Z,22.67
2024-05-09T14:26:23.268Z,22.51
2024-05-09T14:27:23.346Z,22.55
2024-05-09T14:28:23.702Z,22.60
2024-05-09T14:29:23.567Z,22.65
2024-05-09T14:30:30.978Z,22.90
2024-05-09T14:31:24.444Z,24.06
2024-05-09T14:32:23.860Z,25.61
2024-05-09T14:33:23.921Z,26.70
2024-05-09T14:34:24.074Z,27.25
2024-05-09T14:35:23.983Z,27.85
2024-05-09T14:36:24.046Z,28.29
2024-05-09T14:37:24.212Z,28.11
2024-05-09T14:38:24.768Z,28.03
2024-05-09T14:39:24.333Z,28.00
2024-05-09T14:41:24.464Z,27.21
2024-05-09T14:42:24.543Z,26.76
2024-05-09T14:43:24.832Z,26.26
2024-05-09T14:44:24.719Z,25.64
2024-05-09T14:45:24.803Z,25.21
2024-05-09T14:46:25.005Z,24.90
2024-05-09T14:47:25.036Z,24.49
2024-05-09T14:48:25.055Z,24.06
2024-05-09T14:49:25.167Z,23.79
2024-05-09T14:50:34.482Z,23.73
2024-05-09T14:51:25.407Z,23.53
2024-05-09T14:52:25.354Z,23.10
2024-05-09T14:53:25.444Z,22.98
2024-05-09T14:54:25.495Z,23.04
2024-05-09T14:55:25.668Z,22.70
2024-05-09T14:56:26.350Z,22.49
2024-05-09T14:57:26.154Z,22.30
2024-05-09T14:58:25.859Z,22.17
2024-05-09T14:59:25.870Z,22.25
2024-05-09T15:00:29.634Z,22.35
2024-05-09T15:01:26.094Z,22.51
2024-05-09T15:02:26.250Z,22.64
2024-05-09T15:03:26.382Z,22.67
2024-05-09T15:04:26.341Z,22.54
2024-05-09T15:05:26.439Z,22.43
2024-05-09T15:06:26.490Z,22.35
2024-05-09T15:07:26.610Z,22.40
2024-05-09T15:08:26.614Z,22.46
2024-05-09T15:09:26.675Z,22.47
2024-05-09T15:10:34.137Z,22.52
2024-05-09T15:11:26.954Z,22.55
2024-05-09T15:12:26.931Z,22.45
2024-05-09T15:13:27.218Z,22.35
2024-05-09T15:14:27.097Z,22.40
2024-05-09T15:15:27.204Z,22.42
2024-05-09T15:16:27.375Z,22.45
2024-05-09T15:17:27.384Z,22.49
2024-05-09T15:18:27.522Z,22.49
2024-05-09T15:19:27.809Z,22.46
2024-05-09T15:20:34.332Z,22.39
2024-05-09T15:21:27.717Z,22.33
2024-05-09T15:22:27.770Z,22.20
2024-05-09T15:23:27.862Z,22.03
2024-05-09T15:24:27.960Z,21.90
2024-05-09T15:25:28.144Z,21.72
2024-05-09T15:26:28.162Z,21.62
2024-05-09T15:27:28.238Z,21.50
2024-05-09T15:28:28.381Z,21.28
2024-05-09T15:29:28.401Z,21.25
2024-05-09T15:30:31.979Z,21.27
2024-05-09T15:31:28.798Z,21.24
2024-05-09T15:32:28.826Z,21.19
2024-05-09T15:33:28.849Z,21.10
2024-05-09T15:34:28.937Z,21.10
2024-05-09T15:35:28.938Z,21.14
2024-05-09T15:36:29.015Z,21.21
2024-05-09T15:37:29.172Z,21.28
2024-05-09T15:38:29.182Z,21.21
2024-05-09T15:39:29.343Z,21.21
2024-05-09T15:40:36.108Z,21.25
2024-05-09T15:41:29.408Z,21.16
2024-05-09T15:42:29.581Z,21.16
2024-05-09T15:43:29.902Z,21.06
2024-05-09T15:44:29.713Z,21.04
2024-05-09T15:45:29.847Z,21.14
2024-05-09T15:46:29.925Z,21.12
2024-05-09T15:47:30.041Z,21.10
2024-05-09T15:48:30.149Z,21.17
2024-05-09T15:49:30.237Z,21.16
2024-05-09T15:50:37.759Z,21.19
2024-05-09T15:51:30.359Z,21.21
2024-05-09T15:52:30.316Z,21.24
2024-05-09T15:53:30.427Z,21.32
2024-05-09T15:54:30.481Z,21.34
2024-05-09T15:55:30.564Z,21.32
2024-05-09T15:56:30.680Z,21.35
2024-05-09T15:57:30.833Z,21.32
2024-05-09T15:58:30.845Z,21.29
2024-05-09T15:59:30.903Z,21.37
2024-05-09T16:00:37.846Z,21.42
2024-05-09T16:01:31.152Z,21.43
2024-05-09T16:02:31.144Z,21.43
2024-05-09T16:03:31.551Z,21.43
2024-05-09T16:04:31.408Z,21.49
2024-05-09T16:05:31.490Z,21.53
2024-05-09T16:06:31.494Z,21.56
2024-05-09T16:07:31.492Z,21.61
2024-05-09T16:08:31.563Z,21.61
2024-05-09T16:09:31.676Z,21.62
2024-05-09T16:10:33.438Z,21.59
2024-05-09T16:11:31.935Z,21.59
2024-05-09T16:12:31.935Z,21.35
2024-05-09T16:13:31.999Z,21.27
2024-05-09T16:14:32.054Z,21.17
2024-05-09T16:15:32.449Z,21.13
2024-05-09T16:16:32.246Z,21.21
2024-05-09T16:17:32.428Z,21.24
2024-05-09T16:18:32.397Z,21.32
2024-05-09T16:19:32.512Z,21.35
2024-05-09T16:20:39.041Z,21.34
2024-05-09T16:21:32.706Z,21.32
2024-05-09T16:22:32.714Z,21.34
2024-05-09T16:23:32.812Z,21.35
2024-05-09T16:24:32.971Z,21.44
2024-05-09T16:25:32.993Z,21.35
2024-05-09T16:26:33.084Z,21.49
2024-05-09T16:27:33.214Z,21.61
2024-05-09T16:28:33.380Z,21.69
2024-05-09T16:29:33.439Z,21.71
2024-05-09T16:30:35.596Z,21.64
2024-05-09T16:31:33.500Z,21.67
2024-05-09T16:32:33.674Z,21.64
2024-05-09T16:33:33.769Z,21.62
2024-05-09T16:34:33.749Z,21.52
2024-05-09T16:35:33.805Z,21.40
2024-05-09T16:36:33.969Z,21.31
2024-05-09T16:37:34.005Z,21.37
2024-05-09T16:38:34.038Z,21.42
2024-05-09T16:39:34.102Z,21.43
2024-05-09T16:40:38.817Z,21.34
2024-05-09T16:41:34.278Z,21.32
2024-05-09T16:42:34.411Z,21.32
2024-05-09T16:43:34.493Z,21.29
2024-05-09T16:44:35.661Z,21.24
2024-05-09T16:45:34.672Z,21.28
2024-05-09T16:46:34.662Z,21.28
2024-05-09T16:47:34.953Z,21.29
2024-05-09T16:48:35.142Z,21.32
2024-05-09T16:49:34.951Z,21.43
2024-05-09T16:50:35.942Z,21.49
2024-05-09T16:51:35.880Z,21.56
2024-05-09T16:52:35.124Z,21.50
2024-05-09T16:53:35.228Z,21.34
2024-05-09T16:54:35.337Z,21.28
2024-05-09T16:55:36.075Z,21.22
